Subic Bay, Philippines

7:19 PM PHT on September 01, 2014 (GMT +0800)
Subic Bay International | Change Station
CLOSE
Current Station
Airport
Location: Subic Bay,
Elevation: 62 ft
Nearby Weather Stations

Elev 62 ft 14.79 °N, 120.27 °E | Updated 19 minutes ago

Scattered Clouds
Scattered Clouds
82 °F
Feels Like 90 °F
N
0
Wind Variable Wind from North

Today
High -- | Low -- °F
--% Chance of Precip.
Yesterday
High -- | Low -- °F
Precip. -- in
5:46 AM 6:11 PM
Waxing Crescent, 40% visible
Pressure 29.80 in
Visibility 6.2 miles
Clouds Few 1800 ft
Few 2000 ft
Scattered Clouds 8000 ft
Heat Index 90 °F
Dew Point 75 °F
Humidity 79%
Rainfall 0.00 in
Snow Depth Not available.
UV 0 out of 12
Pollen Not available.
Air Quality Not available.
Flu Activity Not available.
METAR RPLB 011100Z 00000KT 9999 FEW018CB FEW020 SCT080 28/24 Q1009

More Conditions Fewer Conditions

Pressure 29.80 in
Visibility 6.2 miles
Clouds Few 1800 ft
Few 2000 ft
Scattered Clouds 8000 ft
Heat Index 90 °F
Dew Point 75 °F
Humidity 79%
Rainfall 0.00 in
Snow Depth Not available.
UV 0 out of 12
Pollen Not available.
Air Quality Not available.
Flu Activity Not available.
METAR RPLB 011100Z 00000KT 9999 FEW018CB FEW020 SCT080 28/24 Q1009

More Conditions Fewer Conditions

10-Day Weather Forecast

Almanac

Astronomy

Sep. 01, 2014 Rise Set
Actual Time 5:46 AM PHT 6:11 PM PHT
Civil Twilight 5:25 AM PHT 6:32 PM PHT
Nautical Twilight 4:59 AM PHT 6:58 PM PHT
Astronomical Twilight 4:34 AM PHT 7:23 PM PHT
Moon 10:58 AM PHT 10:46 PM PHT
Length of Visible Light 13h 07m
Length of Day
12h 24m
Tomorrow will be 0m 48s shorter.
Waxing Crescent, 40% of the Moon is Illuminated
Today
Waxing Crescent
Sep 2
First Quarter
Sep 8
Full
Sep 15
Last Quarter
Sep 24
New

Yesterday's Extremes

Country Highs Country Lows

Community

WunderPhotos

Upload Photos

1,749,188 photos uploaded!

Nearby

Snow Depth

Not available.

Earthquake Activity

City Distance Mag. Time & Date
No recent earthquake activity has been reported nearby.
Minimum magnitude displayed is 2.5.

Coastal Water Temperatures

Place Temperature
No Stations Reporting

Nearby Weather Stations